createdAt,value
2022-09-11T00:01:29.618Z,14.54
2022-09-11T00:04:00.041Z,14.54
2022-09-11T00:06:30.113Z,14.57
2022-09-11T00:09:00.248Z,14.36
2022-09-11T00:11:29.374Z,14.43
2022-09-11T00:13:57.578Z,14.45
2022-09-11T00:16:29.055Z,14.34
2022-09-11T00:19:02.169Z,14.22
2022-09-11T00:21:30.301Z,14.23
2022-09-11T00:23:58.627Z,14.19
2022-09-11T00:26:26.514Z,14.11
2022-09-11T00:28:56.247Z,14.16
2022-09-11T00:31:25.638Z,14.05
2022-09-11T00:33:55.013Z,14.02
2022-09-11T00:36:24.612Z,13.87
2022-09-11T00:38:52.263Z,13.73
2022-09-11T00:41:21.465Z,13.82
2022-09-11T00:43:59.488Z,13.73
2022-09-11T00:46:34.325Z,13.76
2022-09-11T00:49:07.818Z,13.66
2022-09-11T00:51:38.576Z,13.62
2022-09-11T00:54:06.498Z,13.67
2022-09-11T00:56:38.031Z,13.73
2022-09-11T00:59:07.009Z,13.75
2022-09-11T01:01:34.658Z,13.70
2022-09-11T01:04:04.952Z,13.71
2022-09-11T01:06:33.370Z,14.01
2022-09-11T01:09:01.062Z,14.37
2022-09-11T01:11:43.029Z,14.57
2022-09-11T01:14:26.101Z,14.59
2022-09-11T01:16:57.885Z,14.57
2022-09-11T01:19:42.124Z,14.55
2022-09-11T01:25:09.415Z,14.41
2022-09-11T01:27:42.317Z,14.36
2022-09-11T01:30:12.469Z,14.25
2022-09-11T01:33:02.912Z,14.08
2022-09-11T01:35:42.857Z,13.98
2022-09-11T01:38:22.583Z,13.98
2022-09-11T01:40:55.480Z,14.20
2022-09-11T01:43:27.612Z,14.29
2022-09-11T01:45:56.333Z,14.67
2022-09-11T01:48:26.715Z,14.94
2022-09-11T01:50:56.966Z,15.04
2022-09-11T01:53:30.090Z,15.18
2022-09-11T01:55:59.639Z,15.18
2022-09-11T01:59:10.956Z,-139.23
2022-09-11T02:01:55.184Z,15.18
2022-09-11T02:04:29.679Z,-139.23
2022-09-11T02:07:02.165Z,15.18
2022-09-11T02:09:35.303Z,15.11
2022-09-11T02:13:06.564Z,-139.23
2022-09-11T02:16:45.707Z,-139.23
2022-09-11T02:20:13.635Z,-139.23
2022-09-11T02:23:39.751Z,-139.23
2022-09-11T02:27:07.777Z,-139.23
2022-09-11T02:30:35.180Z,-139.23
2022-09-11T02:34:02.558Z,-139.23
2022-09-11T02:37:41.349Z,-139.23
2022-09-11T02:41:19.640Z,-139.23
2022-09-11T02:44:36.151Z,15.11
2022-09-11T02:48:14.169Z,-139.23
2022-09-11T02:51:47.437Z,-139.23
2022-09-11T02:54:25.468Z,15.13
2022-09-11T02:57:01.129Z,15.16
2022-09-11T02:59:33.916Z,15.15
2022-09-11T03:02:02.019Z,15.15
2022-09-11T03:05:21.289Z,-139.23
2022-09-11T03:07:49.039Z,15.25
2022-09-11T03:10:16.476Z,15.29
2022-09-11T03:12:43.839Z,15.29
2022-09-11T03:15:13.230Z,15.45
2022-09-11T03:18:07.037Z,15.45
2022-09-11T03:20:38.127Z,15.46
2022-09-11T03:23:08.162Z,15.58
2022-09-11T03:25:35.563Z,15.59
2022-09-11T03:28:04.546Z,15.70
2022-09-11T03:30:32.064Z,15.74
2022-09-11T03:33:00.562Z,15.75
2022-09-11T03:35:28.022Z,15.67
2022-09-11T03:37:57.635Z,15.71
2022-09-11T03:40:25.007Z,15.70
2022-09-11T03:42:52.923Z,15.70
2022-09-11T03:45:25.020Z,15.70
2022-09-11T03:47:53.667Z,15.65
2022-09-11T03:50:21.164Z,15.68
2022-09-11T03:52:48.510Z,15.72
2022-09-11T03:55:17.663Z,15.71
2022-09-11T03:57:45.017Z,15.71
2022-09-11T04:00:13.377Z,15.71
2022-09-11T04:02:42.034Z,15.71
2022-09-11T04:05:10.569Z,15.71
2022-09-11T04:07:38.483Z,15.71
2022-09-11T04:10:07.619Z,15.71
2022-09-11T04:12:36.578Z,15.71
2022-09-11T04:15:04.229Z,15.71
2022-09-11T04:17:31.573Z,15.71
2022-09-11T04:19:58.955Z,-139.23
2022-09-11T04:22:28.479Z,-139.23
2022-09-11T04:24:57.343Z,-139.23
2022-09-11T04:27:27.078Z,15.71
2022-09-11T04:29:55.753Z,15.71
2022-09-11T04:32:23.095Z,15.71
2022-09-11T04:34:50.467Z,15.71
2022-09-11T04:37:19.776Z,-139.23
2022-09-11T04:42:14.589Z,-139.23
2022-09-11T04:44:41.967Z,-139.23
2022-09-11T04:47:10.667Z,-139.23
2022-09-11T04:49:38.024Z,-139.23
2022-09-11T04:52:07.127Z,-139.23
2022-09-11T04:54:34.816Z,-139.23
2022-09-11T04:57:02.455Z,-139.23
2022-09-11T04:59:30.065Z,-139.23
2022-09-11T05:01:57.737Z,-139.23
2022-09-11T05:04:27.654Z,-139.23
2022-09-11T05:06:55.200Z,-139.23
2022-09-11T05:09:22.872Z,-139.23
2022-09-11T05:11:50.349Z,-139.23
2022-09-11T05:14:18.258Z,-139.23
2022-09-11T05:16:45.900Z,-139.23
2022-09-11T05:19:13.348Z,-139.23
2022-09-11T05:21:43.404Z,-139.23
2022-09-11T05:24:11.435Z,-139.23
2022-09-11T05:26:39.188Z,-139.23
2022-09-11T05:29:09.029Z,-139.23
2022-09-11T05:31:37.127Z,-139.23
2022-09-11T05:34:05.488Z,-139.23
2022-09-11T05:36:33.377Z,-139.23
2022-09-11T05:39:02.149Z,-139.23
2022-09-11T05:41:29.730Z,-139.23
2022-09-11T05:43:58.985Z,-139.23
2022-09-11T05:46:26.576Z,-139.23
2022-09-11T05:48:54.460Z,-139.23
2022-09-11T05:51:22.774Z,-139.23
2022-09-11T05:53:53.881Z,-139.23
2022-09-11T05:56:25.498Z,-139.23
2022-09-11T05:58:52.898Z,-139.23
2022-09-11T06:01:22.979Z,-139.23
2022-09-11T06:03:50.916Z,-139.23
2022-09-11T06:06:21.102Z,-139.23
2022-09-11T06:08:49.884Z,-139.23
2022-09-11T06:11:19.150Z,-139.23
2022-09-11T06:13:48.861Z,-139.23
2022-09-11T06:16:18.798Z,-139.23
2022-09-11T06:18:49.321Z,-139.23
2022-09-11T06:21:19.901Z,-139.23
2022-09-11T06:23:47.615Z,-139.23
2022-09-11T06:26:17.086Z,-139.23
2022-09-11T06:28:44.545Z,-139.23
2022-09-11T06:31:16.277Z,-139.23
2022-09-11T06:33:44.244Z,-139.23
2022-09-11T06:36:14.316Z,-139.23
2022-09-11T06:38:41.689Z,-139.23
2022-09-11T06:41:12.571Z,-139.23
2022-09-11T06:43:40.309Z,-139.23
2022-09-11T06:46:09.160Z,-139.23
2022-09-11T06:48:37.917Z,-139.23
2022-09-11T06:51:05.781Z,-139.23
2022-09-11T06:53:33.239Z,-139.23
2022-09-11T06:56:01.182Z,-139.23
2022-09-11T06:58:29.313Z,-139.23
2022-09-11T07:00:56.831Z,-139.23
2022-09-11T07:03:24.280Z,-139.23
2022-09-11T07:05:53.183Z,-139.23
2022-09-11T07:08:24.860Z,-139.23
2022-09-11T07:10:54.344Z,-139.23
2022-09-11T07:13:24.226Z,-139.23
2022-09-11T07:16:00.664Z,-139.23
2022-09-11T07:18:33.416Z,-139.23
2022-09-11T07:21:06.221Z,-139.23
2022-09-11T07:23:34.650Z,-139.23
2022-09-11T07:26:05.414Z,-139.23
2022-09-11T07:28:34.735Z,-139.23
2022-09-11T07:31:11.417Z,-139.23
2022-09-11T07:33:39.281Z,-139.23
2022-09-11T07:36:12.359Z,-139.23
2022-09-11T07:38:40.512Z,-139.23
2022-09-11T07:41:08.993Z,-139.23
2022-09-11T07:43:36.684Z,-139.23
2022-09-11T07:46:05.276Z,-139.23
2022-09-11T07:48:33.139Z,-139.23
2022-09-11T07:51:03.463Z,-139.23
2022-09-11T07:53:34.406Z,-139.23
2022-09-11T07:56:06.570Z,-139.23
2022-09-11T07:58:35.016Z,-139.23
2022-09-11T08:01:03.520Z,-139.23
2022-09-11T08:03:31.352Z,-139.23
2022-09-11T08:06:55.729Z,-139.23
2022-09-11T08:09:33.271Z,-139.23
2022-09-11T08:13:00.964Z,-139.23
2022-09-11T08:16:27.798Z,-139.23
2022-09-11T08:19:54.284Z,-139.23
2022-09-11T08:22:39.906Z,-139.23
2022-09-11T08:26:08.312Z,-139.23
2022-09-11T08:29:34.841Z,-139.23
2022-09-11T08:32:13.452Z,-139.23
2022-09-11T08:34:51.244Z,-139.23
2022-09-11T08:38:14.256Z,-139.23
2022-09-11T08:41:43.293Z,-139.23
2022-09-11T08:45:17.702Z,-139.23
2022-09-11T08:48:48.868Z,-139.23
2022-09-11T08:52:13.631Z,-139.23
2022-09-11T08:55:43.747Z,-139.23
2022-09-11T08:59:20.284Z,-139.23
2022-09-11T09:03:01.209Z,-139.23
2022-09-11T09:06:39.912Z,-139.23
2022-09-11T09:09:26.358Z,-139.23
2022-09-11T09:12:43.181Z,-139.23
2022-09-11T09:16:25.611Z,-139.23
2022-09-11T09:20:00.423Z,-139.23
2022-09-11T09:23:32.807Z,-139.23
2022-09-11T09:26:29.070Z,-139.23
2022-09-11T09:29:56.720Z,-139.23
2022-09-11T09:33:31.617Z,-139.23
2022-09-11T09:37:05.269Z,-139.23
2022-09-11T09:40:33.733Z,-139.23
2022-09-11T09:44:04.885Z,-139.23
2022-09-11T09:47:33.665Z,-139.23
2022-09-11T09:50:56.400Z,-139.23
2022-09-11T09:54:28.845Z,-139.23
2022-09-11T09:57:56.643Z,-139.23
2022-09-11T10:01:43.933Z,-139.23
2022-09-11T10:05:19.302Z,-139.23
2022-09-11T10:08:45.801Z,-139.23
2022-09-11T10:12:15.757Z,-139.23
2022-09-11T10:15:40.700Z,-139.23
2022-09-11T10:19:39.599Z,-139.23
2022-09-11T10:23:25.635Z,-139.23
2022-09-11T10:26:54.302Z,-139.23
2022-09-11T10:30:41.897Z,-139.23
2022-09-11T10:34:16.988Z,-139.23
2022-09-11T10:38:00.650Z,-139.23
2022-09-11T10:41:27.503Z,-139.23
2022-09-11T10:45:08.572Z,-139.23
2022-09-11T10:48:34.536Z,-139.23
2022-09-11T10:52:17.453Z,-139.23
2022-09-11T10:55:49.697Z,-139.23
2022-09-11T10:59:22.760Z,-139.23
2022-09-11T11:02:50.067Z,-139.23
2022-09-11T11:06:25.743Z,-139.23
2022-09-11T11:10:15.619Z,-139.23
2022-09-11T11:13:55.888Z,-139.23
2022-09-11T11:17:29.300Z,-139.23
2022-09-11T11:21:09.355Z,-139.23
2022-09-11T11:24:57.915Z,-139.23
2022-09-11T11:28:48.870Z,-139.23
2022-09-11T11:31:40.330Z,-139.23
2022-09-11T11:35:34.175Z,-139.23
2022-09-11T11:39:07.608Z,-139.23
2022-09-11T11:42:38.616Z,-139.23
2022-09-11T11:46:12.171Z,-139.23
2022-09-11T11:49:53.272Z,-139.23
2022-09-11T11:52:46.984Z,-139.23
2022-09-11T11:55:45.530Z,-139.23
2022-09-11T11:58:22.318Z,-139.23
2022-09-11T12:00:56.800Z,-139.23
2022-09-11T12:03:30.659Z,-139.23
2022-09-11T12:05:58.169Z,-139.23
2022-09-11T12:08:28.156Z,-139.23
2022-09-11T12:11:00.134Z,-139.23
2022-09-11T12:13:37.843Z,-139.23
2022-09-11T12:16:13.568Z,-139.23
2022-09-11T12:19:04.062Z,-139.23
2022-09-11T12:21:42.334Z,-139.23
2022-09-11T12:24:17.709Z,-139.23
2022-09-11T12:27:11.657Z,-139.23
2022-09-11T12:31:03.415Z,-139.23
2022-09-11T12:34:58.349Z,-139.23
2022-09-11T12:38:31.935Z,-139.23
2022-09-11T12:42:29.072Z,-139.23
2022-09-11T12:45:57.859Z,-139.23
2022-09-11T12:49:31.835Z,-139.23
2022-09-11T12:53:02.349Z,-139.23
2022-09-11T12:56:32.555Z,-139.23
2022-09-11T13:00:03.768Z,-139.23
2022-09-11T13:03:34.024Z,-139.23
2022-09-11T13:07:04.037Z,-139.23
2022-09-11T13:10:33.205Z,-139.23
2022-09-11T13:13:59.731Z,-139.23
2022-09-11T13:16:31.045Z,-139.23
2022-09-11T13:19:01.320Z,-139.23
2022-09-11T13:21:28.666Z,-139.23
2022-09-11T13:24:00.931Z,-139.23
2022-09-11T13:26:31.410Z,-139.23
2022-09-11T13:29:01.072Z,-139.23
2022-09-11T13:31:39.271Z,-139.23
2022-09-11T13:34:13.977Z,-139.23
2022-09-11T13:36:41.612Z,-139.23
2022-09-11T13:39:10.414Z,-139.23
2022-09-11T13:41:40.991Z,-139.23
2022-09-11T13:44:12.138Z,-139.23
2022-09-11T13:46:52.080Z,31.97
2022-09-11T13:49:36.117Z,31.97
2022-09-11T13:52:06.214Z,31.91
2022-09-11T13:54:38.155Z,31.81
2022-09-11T13:57:28.042Z,31.87
2022-09-11T13:59:57.124Z,32.02
2022-09-11T14:02:56.383Z,32.10
2022-09-11T14:05:25.977Z,32.24
2022-09-11T14:08:01.331Z,32.43
2022-09-11T14:10:32.818Z,32.49
2022-09-11T14:13:06.335Z,32.56
2022-09-11T14:15:42.240Z,32.70
2022-09-11T14:18:21.356Z,32.63
2022-09-11T14:20:49.036Z,32.32
2022-09-11T14:23:24.211Z,31.94
2022-09-11T14:26:06.188Z,31.47
2022-09-11T14:28:37.473Z,30.95
2022-09-11T14:31:09.110Z,30.42
2022-09-11T14:33:38.052Z,29.90
2022-09-11T14:36:12.985Z,29.40
2022-09-11T14:38:40.608Z,28.93
2022-09-11T14:41:08.420Z,28.51
2022-09-11T14:43:38.502Z,28.11
2022-09-11T14:46:06.508Z,27.76
2022-09-11T14:48:35.742Z,27.56
2022-09-11T14:51:12.705Z,27.53
2022-09-11T14:53:43.258Z,27.56
2022-09-11T14:56:10.936Z,27.68
2022-09-11T14:58:38.636Z,27.87
2022-09-11T15:01:06.230Z,28.18
2022-09-11T15:03:33.669Z,28.44
2022-09-11T15:06:01.215Z,28.54
2022-09-11T15:08:29.885Z,28.60
2022-09-11T15:10:57.234Z,28.53
2022-09-11T15:13:24.646Z,28.40
2022-09-11T15:15:52.062Z,28.25
2022-09-11T15:18:19.965Z,28.08
2022-09-11T15:20:47.331Z,27.91
2022-09-11T15:23:16.365Z,27.76
2022-09-11T15:25:45.056Z,27.64
2022-09-11T15:28:12.540Z,27.70
2022-09-11T15:30:40.380Z,27.92
2022-09-11T15:33:07.763Z,28.26
2022-09-11T15:35:35.140Z,28.68
2022-09-11T15:38:04.301Z,29.12
2022-09-11T15:40:32.461Z,29.58
2022-09-11T15:43:01.125Z,30.04
2022-09-11T15:45:28.515Z,30.53
2022-09-11T15:47:56.144Z,31.03
2022-09-11T15:50:28.188Z,31.51
2022-09-11T15:52:55.518Z,31.89
2022-09-11T15:55:22.892Z,32.21
2022-09-11T15:57:50.240Z,32.41
2022-09-11T16:00:19.006Z,32.47
2022-09-11T16:02:46.376Z,32.53
2022-09-11T16:05:14.943Z,32.56
2022-09-11T16:07:42.305Z,32.45
2022-09-11T16:10:10.511Z,32.41
2022-09-11T16:12:39.488Z,32.26
2022-09-11T16:15:07.825Z,32.13
2022-09-11T16:17:36.753Z,31.88
2022-09-11T16:20:04.495Z,31.53
2022-09-11T16:22:32.249Z,31.18
2022-09-11T16:24:59.911Z,30.88
2022-09-11T16:27:27.313Z,30.66
2022-09-11T16:32:45.231Z,30.16
2022-09-11T16:35:13.695Z,29.87
2022-09-11T16:37:41.179Z,29.63
2022-09-11T16:40:09.715Z,29.41
2022-09-11T16:42:37.156Z,29.21
2022-09-11T16:45:07.189Z,29.08
2022-09-11T16:47:35.014Z,29.05
2022-09-11T16:50:08.126Z,29.05
2022-09-11T16:52:38.484Z,29.04
2022-09-11T16:55:07.497Z,29.04
2022-09-11T16:57:35.390Z,29.06
2022-09-11T17:00:03.148Z,29.08
2022-09-11T17:02:30.488Z,29.04
2022-09-11T17:04:57.852Z,28.97
2022-09-11T17:07:26.669Z,28.80
2022-09-11T17:09:54.552Z,28.52
2022-09-11T17:12:22.242Z,28.16
2022-09-11T17:14:50.001Z,27.72
2022-09-11T17:17:17.595Z,27.25
2022-09-11T17:19:44.944Z,26.76
2022-09-11T17:22:12.371Z,26.27
2022-09-11T17:24:41.067Z,25.78
2022-09-11T17:27:10.291Z,25.30
2022-09-11T17:29:42.397Z,24.83
2022-09-11T17:32:27.930Z,24.37
2022-09-11T17:34:58.372Z,24.37
2022-09-11T17:37:26.745Z,24.37
2022-09-11T17:39:55.690Z,24.37
2022-09-11T17:42:23.685Z,-139.23
2022-09-11T17:44:51.122Z,-139.23
2022-09-11T17:47:20.459Z,-139.23
2022-09-11T17:49:49.221Z,-139.23
2022-09-11T17:52:16.895Z,-139.23
2022-09-11T17:54:44.239Z,-139.23
2022-09-11T17:57:12.943Z,-139.23
2022-09-11T17:59:40.494Z,-139.23
2022-09-11T18:02:14.048Z,-139.23
2022-09-11T18:04:41.560Z,24.37
2022-09-11T18:07:09.250Z,24.37
2022-09-11T18:09:37.139Z,24.37
2022-09-11T18:12:04.827Z,24.37
2022-09-11T18:14:37.740Z,24.37
2022-09-11T18:17:05.431Z,24.37
2022-09-11T18:19:33.166Z,24.37
2022-09-11T18:22:00.789Z,24.37
2022-09-11T18:24:29.922Z,24.37
2022-09-11T18:27:00.742Z,24.37
2022-09-11T18:29:30.157Z,24.37
2022-09-11T18:32:00.210Z,24.37
2022-09-11T18:34:28.908Z,24.37
2022-09-11T18:36:56.403Z,-139.23
2022-09-11T18:39:23.901Z,-139.23
2022-09-11T18:41:52.636Z,-139.23
2022-09-11T18:44:22.469Z,-139.23
2022-09-11T18:49:21.891Z,-139.23
2022-09-11T18:54:20.015Z,-139.23
2022-09-11T18:56:50.442Z,-139.23
2022-09-11T18:59:19.310Z,-139.23
2022-09-11T19:01:46.838Z,-139.23
2022-09-11T19:04:16.492Z,-139.23
2022-09-11T19:06:46.145Z,-139.23
2022-09-11T19:09:14.578Z,-139.23
2022-09-11T19:11:43.472Z,-139.23
2022-09-11T19:16:40.928Z,-139.23
2022-09-11T19:19:09.789Z,-139.23
2022-09-11T19:21:38.692Z,-139.23
2022-09-11T19:24:08.465Z,-139.23
2022-09-11T19:26:38.729Z,-139.23
2022-09-11T19:29:08.412Z,-139.23
2022-09-11T19:31:39.134Z,-139.23
2022-09-11T19:34:07.732Z,-139.23
2022-09-11T19:36:36.788Z,-139.23
2022-09-11T19:39:05.532Z,-139.23
2022-09-11T19:44:04.414Z,-139.23
2022-09-11T19:46:33.490Z,-139.23
2022-09-11T19:49:02.821Z,-139.23
2022-09-11T19:51:32.092Z,-139.23
2022-09-11T19:54:02.552Z,-139.23
2022-09-11T19:56:32.208Z,-139.23
2022-09-11T19:59:03.744Z,-139.23
2022-09-11T20:01:32.369Z,-139.23
2022-09-11T20:04:00.968Z,-139.23
2022-09-11T20:06:33.676Z,-139.23
2022-09-11T20:09:30.461Z,-139.23
2022-09-11T20:12:07.583Z,-139.23
2022-09-11T20:14:40.630Z,-139.23
2022-09-11T20:17:13.357Z,-139.23
2022-09-11T20:19:45.583Z,-139.23
2022-09-11T20:22:21.890Z,-139.23
2022-09-11T20:25:00.722Z,-139.23
2022-09-11T20:27:55.545Z,-139.23
2022-09-11T20:31:14.359Z,-139.23
2022-09-11T20:34:27.745Z,-139.23
2022-09-11T20:37:53.784Z,-139.23
2022-09-11T20:41:20.327Z,-139.23
2022-09-11T20:43:54.229Z,-139.23
2022-09-11T20:46:28.967Z,-139.23
2022-09-11T20:49:00.985Z,-139.23
2022-09-11T20:51:57.841Z,-139.23
2022-09-11T20:55:23.787Z,-139.23
2022-09-11T20:58:49.748Z,-139.23
2022-09-11T21:02:19.008Z,-139.23
2022-09-11T21:05:45.067Z,-139.23
2022-09-11T21:09:12.199Z,-139.23
2022-09-11T21:12:07.078Z,-139.23
2022-09-11T21:14:57.237Z,-139.23
2022-09-11T21:17:35.681Z,-139.23
2022-09-11T21:20:41.736Z,-139.23
2022-09-11T21:24:11.081Z,-139.23
2022-09-11T21:26:50.541Z,-139.23
2022-09-11T21:29:20.265Z,-139.23
2022-09-11T21:32:03.197Z,-139.23
2022-09-11T21:34:56.031Z,-139.23
2022-09-11T21:37:42.705Z,-139.23
2022-09-11T21:40:11.608Z,-139.23
2022-09-11T21:42:42.693Z,-139.23
2022-09-11T21:45:28.424Z,-139.23
2022-09-11T21:48:24.338Z,-139.23
2022-09-11T21:51:06.188Z,-139.23
2022-09-11T21:53:37.296Z,-139.23
2022-09-11T21:56:49.859Z,-139.23
2022-09-11T21:59:25.343Z,-139.23
2022-09-11T22:02:51.220Z,-139.23
2022-09-11T22:05:21.905Z,24.37
2022-09-11T22:08:40.905Z,-139.23
2022-09-11T22:12:01.820Z,-139.23
2022-09-11T22:14:44.164Z,-139.23
2022-09-11T22:17:26.605Z,-139.23
2022-09-11T22:19:56.402Z,-139.23
2022-09-11T22:23:23.576Z,-139.23
2022-09-11T22:26:56.409Z,-139.23
2022-09-11T22:30:23.483Z,-139.23
2022-09-11T22:33:31.531Z,-139.23
2022-09-11T22:36:56.946Z,-139.23
2022-09-11T22:40:18.989Z,-139.23
2022-09-11T22:43:08.024Z,-139.23
2022-09-11T22:45:37.760Z,-139.23
2022-09-11T22:48:45.324Z,-139.23
2022-09-11T22:51:47.381Z,-139.23
2022-09-11T22:55:11.972Z,-139.23
2022-09-11T22:58:39.141Z,-139.23
2022-09-11T23:01:43.875Z,-139.23
2022-09-11T23:05:27.627Z,-139.23
2022-09-11T23:08:54.000Z,-139.23
2022-09-11T23:12:21.610Z,-139.23
2022-09-11T23:15:47.629Z,-139.23
2022-09-11T23:19:14.682Z,-139.23
2022-09-11T23:22:40.748Z,-139.23
2022-09-11T23:26:01.516Z,-139.23
2022-09-11T23:29:28.824Z,-139.23
2022-09-11T23:32:55.134Z,-139.23
2022-09-11T23:36:14.012Z,-139.23
2022-09-11T23:38:58.277Z,-139.23
2022-09-11T23:42:24.693Z,-139.23
2022-09-11T23:45:52.075Z,-139.23
2022-09-11T23:49:18.020Z,-139.23
2022-09-11T23:52:43.895Z,-139.23
2022-09-11T23:56:11.380Z,-139.23
2022-09-11T23:59:04.138Z,-139.23
